Time;durP1;ratioP1;P1;durP2;ratioP2;P2;SDS_P1;SDS_P2;PMS_P1;PMS_P2;Temp;Humidity;BMP_temperature;BMP_pressure;BME280_temperature;BME280_humidity;BME280_pressure;Samples;Min_cycle;Max_cycle;Signal;HPM_P1;HPM_P2
2024/02/20 06:02:22;;;;;;;10.68;2.58;;;6.70;92.50;;;;;;4068969;29;20059;-78
2024/02/20 06:04:24;;;;;;;12.32;2.40;;;6.80;92.50;;;;;;4070710;29;20056;-78
2024/02/20 06:06:26;;;;;;;12.82;2.70;;;6.80;92.40;;;;;;4070774;29;20092;-79
2024/02/20 06:08:27;;;;;;;10.15;2.20;;;6.80;92.40;;;;;;4070832;29;20462;-79
2024/02/20 06:10:29;;;;;;;12.05;3.13;;;6.80;92.60;;;;;;4070795;29;20052;-79
2024/02/20 06:12:31;;;;;;;13.45;2.63;;;6.70;92.30;;;;;;4070588;29;20478;-79
2024/02/20 06:14:33;;;;;;;11.00;2.20;;;6.70;92.60;;;;;;4070894;29;20107;-79
2024/02/20 06:16:35;;;;;;;12.77;2.47;;;6.70;92.30;;;;;;4070454;29;20092;-80
2024/02/20 06:18:38;;;;;;;13.10;2.78;;;6.70;92.40;;;;;;4070954;29;20446;-78
2024/02/20 06:20:41;;;;;;;10.60;2.45;;;6.80;92.30;;;;;;4070513;29;20555;-79
2024/02/20 06:22:43;;;;;;;11.13;2.22;;;6.80;92.20;;;;;;4070386;29;20047;-79
2024/02/20 06:24:45;;;;;;;15.15;2.45;;;6.80;92.20;;;;;;4070481;29;20545;-80
2024/02/20 06:26:46;;;;;;;10.07;2.55;;;6.80;92.10;;;;;;4070388;29;20052;-80
2024/02/20 06:28:48;;;;;;;12.07;2.78;;;6.80;92.00;;;;;;4070516;29;20100;-79
2024/02/20 06:30:50;;;;;;;12.00;2.22;;;6.80;91.80;;;;;;4070082;29;20466;-79
2024/02/20 06:32:52;;;;;;;10.43;2.60;;;6.80;91.70;;;;;;4070276;29;20528;-79
2024/02/20 06:34:55;;;;;;;10.07;2.17;;;6.90;91.60;;;;;;4070239;29;20074;-78
2024/02/20 06:36:57;;;;;;;11.15;2.55;;;6.80;91.40;;;;;;4070119;29;20052;-80
2024/02/20 06:38:59;;;;;;;11.50;2.67;;;6.80;91.40;;;;;;4070119;29;20096;-79
2024/02/20 06:41:01;;;;;;;12.60;2.35;;;6.80;91.50;;;;;;4070368;29;20080;-79
2024/02/20 06:43:03;;;;;;;12.38;2.40;;;6.80;91.20;;;;;;4070056;29;20104;-79
2024/02/20 06:45:06;;;;;;;20.67;2.95;;;6.90;91.50;;;;;;4070217;29;20048;-79
2024/02/20 06:47:08;;;;;;;15.20;2.70;;;6.90;91.10;;;;;;4070144;29;20423;-79
2024/02/20 06:49:10;;;;;;;20.98;3.13;;;6.80;91.10;;;;;;4070239;29;20557;-79
2024/02/20 06:51:14;;;;;;;12.63;2.42;;;6.80;91.10;;;;;;4070219;29;20454;-79
2024/02/20 06:53:15;;;;;;;16.10;2.70;;;6.80;91.10;;;;;;4070226;29;20554;-79
2024/02/20 06:55:16;;;;;;;10.85;2.13;;;6.80;90.80;;;;;;4070116;29;20108;-79
2024/02/20 06:57:18;;;;;;;14.48;2.70;;;6.80;90.90;;;;;;4070086;29;20048;-78
2024/02/20 06:59:20;;;;;;;11.90;2.30;;;6.80;91.10;;;;;;4069992;29;20124;-80
2024/02/20 07:01:22;;;;;;;8.77;2.53;;;6.80;91.10;;;;;;4069998;29;20458;-80
2024/02/20 07:03:24;;;;;;;8.77;2.00;;;6.80;91.10;;;;;;4070061;29;20450;-78
2024/02/20 07:05:25;;;;;;;11.95;2.35;;;6.90;91.10;;;;;;4069934;29;20482;-77
2024/02/20 07:07:29;;;;;;;12.60;2.50;;;6.80;91.10;;;;;;4069713;29;20111;-80
2024/02/20 07:09:30;;;;;;;15.45;2.53;;;6.80;90.90;;;;;;4069778;29;20088;-78
2024/02/20 07:11:32;;;;;;;11.30;2.20;;;6.80;91.10;;;;;;4069627;29;20052;-77
2024/02/20 07:13:35;;;;;;;11.40;3.65;;;6.90;91.10;;;;;;4069687;29;20048;-78
2024/02/20 07:15:39;;;;;;;12.98;2.50;;;6.90;91.10;;;;;;4069558;29;20054;-77
2024/02/20 07:17:40;;;;;;;9.82;2.22;;;6.80;91.10;;;;;;4069657;29;20123;-80
2024/02/20 07:19:43;;;;;;;14.30;2.40;;;6.80;91.20;;;;;;4069589;29;20123;-78
2024/02/20 07:21:44;;;;;;;12.15;2.22;;;6.90;91.20;;;;;;4069546;29;20048;-78
2024/02/20 07:23:48;;;;;;;16.90;2.42;;;6.90;90.90;;;;;;4069300;29;20462;-76
2024/02/20 07:25:50;;;;;;;18.15;2.50;;;6.90;91.10;;;;;;4069422;29;20446;-75
2024/02/20 07:27:51;;;;;;;15.25;3.20;;;6.90;90.90;;;;;;4069356;29;20059;-75
2024/02/20 07:29:53;;;;;;;14.90;2.92;;;6.90;90.70;;;;;;4069251;29;20482;-76
2024/02/20 07:31:56;;;;;;;13.30;2.45;;;6.90;90.80;;;;;;4069351;29;20099;-76
2024/02/20 07:33:59;;;;;;;12.98;2.40;;;6.90;90.80;;;;;;4069328;29;20423;-79
2024/02/20 07:36:01;;;;;;;12.23;2.45;;;6.90;91.10;;;;;;4069418;29;20067;-77
2024/02/20 07:38:03;;;;;;;12.38;2.90;;;6.90;90.90;;;;;;4069387;29;20100;-77
2024/02/20 07:40:09;;;;;;;9.68;2.40;;;6.90;90.60;;;;;;4069420;29;20052;-77
2024/02/20 07:42:10;;;;;;;13.05;2.53;;;6.90;90.70;;;;;;4069366;29;20503;-78
2024/02/20 07:44:12;;;;;;;14.55;2.90;;;7.00;90.70;;;;;;4070712;29;20506;-78
2024/02/20 07:46:14;;;;;;;11.13;2.55;;;7.00;90.80;;;;;;4072357;29;20048;-78
2024/02/20 07:48:16;;;;;;;12.32;2.38;;;6.90;90.50;;;;;;4072364;29;20048;-76
2024/02/20 07:50:18;;;;;;;12.38;2.10;;;7.00;90.70;;;;;;4069801;29;20079;-77
2024/02/20 07:52:20;;;;;;;15.23;2.60;;;7.00;90.50;;;;;;4069253;29;20048;-80
2024/02/20 07:54:22;;;;;;;9.88;2.60;;;7.00;90.50;;;;;;4069040;29;20119;-77
2024/02/20 07:56:26;;;;;;;8.40;2.42;;;7.00;90.40;;;;;;4069091;29;20112;-78
2024/02/20 07:58:28;;;;;;;11.35;2.70;;;7.10;90.40;;;;;;4068922;29;20086;-77
2024/02/20 08:00:30;;;;;;;14.02;2.40;;;7.10;90.20;;;;;;4069130;29;20048;-78
2024/02/20 08:02:32;;;;;;;11.93;2.38;;;7.10;90.20;;;;;;4068656;29;20112;-79
2024/02/20 08:04:34;;;;;;;11.43;2.95;;;7.10;90.10;;;;;;4069112;29;20080;-76
2024/02/20 08:06:36;;;;;;;15.32;3.17;;;7.20;90.00;;;;;;4069236;29;20052;-77
2024/02/20 08:08:37;;;;;;;12.05;2.50;;;7.10;90.20;;;;;;4069185;29;20446;-78
2024/02/20 08:10:38;;;;;;;11.52;3.22;;;7.20;90.20;;;;;;4069127;29;20044;-76
2024/02/20 08:12:42;;;;;;;10.23;2.15;;;7.20;90.00;;;;;;4053464;29;20506;-78
2024/02/20 08:14:43;;;;;;;13.55;2.92;;;7.20;90.10;;;;;;4053551;29;20487;-78
2024/02/20 08:16:48;;;;;;;8.45;2.45;;;7.20;90.10;;;;;;4061718;29;20044;-78
2024/02/20 08:18:50;;;;;;;10.43;2.15;;;7.20;89.40;;;;;;4069059;29;20055;-79
2024/02/20 08:20:52;;;;;;;11.80;2.47;;;7.20;88.40;;;;;;4068892;29;20060;-78
2024/02/20 08:22:54;;;;;;;11.57;2.03;;;7.30;88.40;;;;;;4068687;29;20056;-77
2024/02/20 08:24:56;;;;;;;13.23;2.58;;;7.30;88.80;;;;;;4069096;29;20052;-76
2024/02/20 08:27:01;;;;;;;12.85;2.33;;;7.40;88.10;;;;;;4069233;29;20562;-80
2024/02/20 08:29:04;;;;;;;10.45;2.30;;;7.40;88.60;;;;;;4069220;29;20052;-78
2024/02/20 08:31:07;;;;;;;11.65;2.65;;;7.40;88.90;;;;;;4068756;29;20056;-77
2024/02/20 08:33:10;;;;;;;11.85;2.42;;;7.50;88.80;;;;;;4069244;29;20063;-78
2024/02/20 08:35:11;;;;;;;12.35;2.28;;;7.50;88.20;;;;;;4069134;29;20055;-78
2024/02/20 08:37:13;;;;;;;13.05;2.70;;;7.50;87.40;;;;;;4069138;29;20454;-79
2024/02/20 08:39:15;;;;;;;13.80;2.67;;;7.50;87.20;;;;;;4068752;29;20412;-79
2024/02/20 08:41:17;;;;;;;12.20;2.28;;;7.60;88.20;;;;;;4068841;29;20479;-80
2024/02/20 08:43:19;;;;;;;11.07;2.50;;;7.70;87.60;;;;;;4068982;29;20533;-79
2024/02/20 08:45:22;;;;;;;12.48;2.70;;;7.80;88.20;;;;;;4068836;29;20394;-79
2024/02/20 08:47:24;;;;;;;12.93;2.95;;;7.80;87.30;;;;;;4068915;29;20078;-80
2024/02/20 08:49:26;;;;;;;9.93;2.13;;;7.70;86.70;;;;;;4068923;29;20111;-78
2024/02/20 08:51:28;;;;;;;13.77;2.92;;;7.80;86.80;;;;;;4068806;29;20100;-78
2024/02/20 08:53:30;;;;;;;10.82;2.55;;;7.70;85.90;;;;;;4069174;29;20054;-80
2024/02/20 08:55:32;;;;;;;13.30;2.58;;;7.80;86.10;;;;;;4069389;29;20402;-78
2024/02/20 08:57:34;;;;;;;12.55;2.95;;;7.90;86.10;;;;;;4069292;29;20458;-79
2024/02/20 08:59:35;;;;;;;13.45;2.40;;;7.90;84.90;;;;;;4069113;29;20052;-78
2024/02/20 09:01:40;;;;;;;11.13;2.35;;;7.80;85.20;;;;;;4071249;29;20048;-79
2024/02/20 09:03:42;;;;;;;13.13;2.70;;;7.90;85.20;;;;;;4071894;29;20048;-77
2024/02/20 09:05:44;;;;;;;9.57;2.60;;;7.90;85.30;;;;;;4071450;29;20052;-79
2024/02/20 09:07:46;;;;;;;12.90;2.75;;;7.90;85.00;;;;;;4072563;29;20430;-79
2024/02/20 09:09:48;;;;;;;13.13;2.65;;;7.90;84.80;;;;;;4071826;29;20052;-79
2024/02/20 09:11:50;;;;;;;15.35;2.80;;;7.90;84.00;;;;;;4071656;29;20076;-80
2024/02/20 09:13:51;;;;;;;13.32;2.88;;;7.90;84.30;;;;;;4071873;29;20048;-79
2024/02/20 09:15:53;;;;;;;11.27;2.42;;;7.90;84.60;;;;;;4071833;29;20059;-80
2024/02/20 09:17:56;;;;;;;10.20;2.60;;;7.90;84.60;;;;;;4071286;29;20055;-80
2024/02/20 09:19:58;;;;;;;14.02;3.10;;;8.00;85.00;;;;;;4071565;29;20044;-77
2024/02/20 09:22:01;;;;;;;11.77;2.90;;;8.10;83.80;;;;;;4071652;29;20411;-79
2024/02/20 09:24:03;;;;;;;11.18;2.78;;;8.00;83.60;;;;;;4071901;29;20131;-79
2024/02/20 09:26:06;;;;;;;12.40;2.70;;;8.20;84.00;;;;;;4071612;29;20410;-78
2024/02/20 09:28:08;;;;;;;11.13;2.80;;;8.30;82.60;;;;;;4071823;29;20056;-77
2024/02/20 09:30:10;;;;;;;16.10;3.13;;;8.50;82.40;;;;;;4071827;29;20051;-78
2024/02/20 09:32:13;;;;;;;15.32;3.00;;;8.50;81.70;;;;;;4071519;29;20063;-77
2024/02/20 09:34:16;;;;;;;13.45;2.90;;;8.70;82.10;;;;;;4071419;29;20059;-79
2024/02/20 09:36:18;;;;;;;12.45;2.47;;;8.60;80.40;;;;;;4071865;29;20462;-78
2024/02/20 09:38:20;;;;;;;11.88;2.90;;;8.60;81.10;;;;;;4071634;29;20043;-78
2024/02/20 09:40:21;;;;;;;13.15;3.03;;;8.60;81.10;;;;;;4071917;29;20056;-79
2024/02/20 09:42:26;;;;;;;11.60;2.97;;;8.60;82.00;;;;;;4072148;29;20100;-77
2024/02/20 09:44:30;;;;;;;18.38;2.90;;;8.80;82.30;;;;;;4071152;29;20048;-79
2024/02/20 09:46:40;;;;;;;14.25;2.70;;;8.90;81.10;;;;;;4079669;29;20124;-78
2024/02/20 09:48:42;;;;;;;13.05;2.97;;;8.80;80.70;;;;;;4078136;29;20071;-78
2024/02/20 09:50:49;;;;;;;12.98;2.75;;;8.80;81.80;;;;;;4076129;29;20048;-77
2024/02/20 09:52:54;;;;;;;14.82;2.92;;;8.80;80.20;;;;;;4079758;29;20084;-79
2024/02/20 09:54:56;;;;;;;12.47;2.80;;;8.80;80.10;;;;;;4076743;29;20426;-80
2024/02/20 09:57:00;;;;;;;14.65;3.10;;;8.90;80.60;;;;;;4084292;29;20048;-80
2024/02/20 09:59:02;;;;;;;15.75;3.30;;;8.90;79.10;;;;;;4084896;29;20052;-79
2024/02/20 10:01:05;;;;;;;14.73;3.00;;;9.00;78.90;;;;;;4085369;29;20039;-79
2024/02/20 10:03:07;;;;;;;16.77;3.15;;;9.00;78.80;;;;;;4091250;29;20052;-78
2024/02/20 10:05:15;;;;;;;19.08;3.17;;;9.00;77.80;;;;;;4083523;29;20048;-78
2024/02/20 10:07:20;;;;;;;12.75;2.95;;;9.10;78.10;;;;;;4083030;29;20052;-79
2024/02/20 10:09:21;;;;;;;13.88;3.20;;;9.30;77.70;;;;;;4082653;29;20052;-79
2024/02/20 10:11:23;;;;;;;13.70;3.13;;;9.20;76.70;;;;;;4075968;29;20556;-77
2024/02/20 10:13:25;;;;;;;13.02;2.83;;;9.10;76.50;;;;;;4071597;29;20052;-79
2024/02/20 10:15:28;;;;;;;15.57;3.05;;;9.10;77.00;;;;;;4069363;29;20052;-77
2024/02/20 10:17:31;;;;;;;15.18;3.55;;;9.10;77.90;;;;;;4069782;29;20048;-79
2024/02/20 10:19:32;;;;;;;13.88;2.70;;;9.20;77.90;;;;;;4076942;29;20055;-79
2024/02/20 10:21:34;;;;;;;14.80;2.83;;;9.00;77.30;;;;;;4082955;29;20405;-79
2024/02/20 10:23:37;;;;;;;16.02;3.03;;;9.00;77.50;;;;;;4084586;29;20047;-80
2024/02/20 10:25:38;;;;;;;11.85;2.58;;;9.00;78.20;;;;;;4084320;29;20060;-76
2024/02/20 10:27:41;;;;;;;16.67;3.13;;;9.10;77.50;;;;;;4084713;29;20099;-76
2024/02/20 10:29:43;;;;;;;16.60;3.28;;;9.00;78.90;;;;;;4092524;29;20742;-77
2024/02/20 10:31:44;;;;;;;14.35;2.63;;;9.00;78.50;;;;;;4100596;29;20485;-77
2024/02/20 10:33:51;;;;;;;14.82;3.17;;;8.90;76.70;;;;;;4100179;29;20110;-77
2024/02/20 10:36:03;;;;;;;11.60;2.75;;;9.00;76.60;;;;;;4102949;29;20070;-77
2024/02/20 10:38:05;;;;;;;11.27;2.40;;;8.90;75.10;;;;;;4102513;29;20059;-79
2024/02/20 10:40:11;;;;;;;12.30;2.40;;;9.00;76.20;;;;;;4094545;29;20047;-78
2024/02/20 10:42:13;;;;;;;11.95;2.78;;;9.10;76.50;;;;;;4085071;29;20465;-78
2024/02/20 10:44:16;;;;;;;11.35;2.58;;;9.10;77.00;;;;;;4087633;29;20059;-78
2024/02/20 10:46:18;;;;;;;14.50;2.60;;;9.30;76.40;;;;;;4083677;29;20066;-79
2024/02/20 10:48:26;;;;;;;12.45;2.60;;;9.30;74.60;;;;;;4083900;29;20157;-76
2024/02/20 10:50:31;;;;;;;12.50;2.40;;;9.30;74.70;;;;;;4083455;29;20553;-78
2024/02/20 10:52:35;;;;;;;10.43;2.50;;;9.30;75.60;;;;;;4083967;29;20055;-76
2024/02/20 10:54:40;;;;;;;13.88;2.58;;;9.20;74.70;;;;;;4083744;29;20056;-78
2024/02/20 10:56:44;;;;;;;16.88;2.63;;;9.10;74.70;;;;;;4083661;29;20549;-80
2024/02/20 10:58:46;;;;;;;11.95;2.55;;;9.10;75.20;;;;;;4081927;29;20052;-79
2024/02/20 11:00:49;;;;;;;13.27;3.50;;;9.20;74.90;;;;;;4082944;29;20119;-77
2024/02/20 11:02:52;;;;;;;12.57;2.28;;;9.30;74.90;;;;;;4067039;29;20414;-80
2024/02/20 11:04:54;;;;;;;10.73;2.60;;;9.40;74.50;;;;;;4068054;29;20111;-78
2024/02/20 11:06:57;;;;;;;13.68;2.63;;;9.30;73.60;;;;;;4074301;29;20115;-79
2024/02/20 11:09:08;;;;;;;13.48;3.08;;;9.20;73.50;;;;;;4073138;29;20079;-76
2024/02/20 11:11:12;;;;;;;15.20;3.22;;;9.20;74.20;;;;;;4067767;29;20088;-76
2024/02/20 11:13:24;;;;;;;13.68;2.67;;;9.20;74.60;;;;;;4067652;29;20058;-80
2024/02/20 11:15:28;;;;;;;14.98;2.55;;;9.20;73.70;;;;;;4067643;29;20063;-77
2024/02/20 11:17:35;;;;;;;11.68;2.80;;;9.10;73.90;;;;;;4067489;29;20052;-79
2024/02/20 11:19:37;;;;;;;11.50;2.75;;;9.20;74.60;;;;;;4067633;29;20048;-79
2024/02/20 11:21:38;;;;;;;12.63;2.78;;;9.30;73.70;;;;;;4065522;29;20051;-79
2024/02/20 11:23:40;;;;;;;9.68;2.42;;;9.40;73.50;;;;;;4066924;29;20048;-77
2024/02/20 11:25:42;;;;;;;11.70;2.92;;;9.40;73.90;;;;;;4067183;29;20059;-79
2024/02/20 11:27:46;;;;;;;14.57;2.50;;;9.50;73.60;;;;;;4067022;29;20058;-77
2024/02/20 11:29:50;;;;;;;10.15;2.63;;;9.60;72.60;;;;;;4062352;29;20052;-79
2024/02/20 11:31:52;;;;;;;10.65;2.47;;;9.60;72.80;;;;;;4067356;29;20059;-80
2024/02/20 11:33:54;;;;;;;13.07;2.50;;;9.60;71.00;;;;;;4067126;29;20466;-77
2024/02/20 11:35:56;;;;;;;12.32;2.33;;;9.50;69.90;;;;;;4067068;29;20056;-79
2024/02/20 11:37:59;;;;;;;9.00;2.17;;;9.60;70.60;;;;;;4067301;29;20076;-79
2024/02/20 11:40:01;;;;;;;14.25;2.40;;;9.70;70.40;;;;;;4067162;29;20565;-78
2024/02/20 11:42:03;;;;;;;11.25;2.67;;;9.70;71.60;;;;;;4067704;29;20055;-79
2024/02/20 11:44:06;;;;;;;11.35;2.50;;;9.70;70.50;;;;;;4067525;29;20056;-79
2024/02/20 11:46:09;;;;;;;11.93;2.50;;;9.80;71.80;;;;;;4066988;29;20506;-78
2024/02/20 11:48:13;;;;;;;12.30;2.08;;;10.00;69.90;;;;;;4066928;29;20056;-77
2024/02/20 11:50:17;;;;;;;11.45;2.55;;;10.10;68.70;;;;;;4066992;29;20119;-79
2024/02/20 11:52:19;;;;;;;10.30;2.20;;;10.10;68.90;;;;;;4067141;29;20056;-79
2024/02/20 11:54:21;;;;;;;11.38;2.60;;;10.10;69.00;;;;;;4067184;29;20505;-79
2024/02/20 11:56:23;;;;;;;10.00;2.28;;;10.20;69.60;;;;;;4067134;29;20501;-77
2024/02/20 11:58:25;;;;;;;7.80;2.10;;;10.10;67.50;;;;;;4067162;29;20056;-77
2024/02/20 12:00:27;;;;;;;11.32;2.58;;;9.90;67.70;;;;;;4066857;29;20108;-79
2024/02/20 12:02:30;;;;;;;10.75;2.63;;;10.00;67.40;;;;;;4066534;29;20051;-80
2024/02/20 12:04:32;;;;;;;8.80;2.13;;;10.00;66.60;;;;;;4051351;29;20056;-79
2024/02/20 12:06:35;;;;;;;12.75;2.70;;;10.00;66.60;;;;;;4067088;29;20087;-80
2024/02/20 12:08:41;;;;;;;10.35;2.25;;;10.10;66.60;;;;;;4067162;29;20044;-79
2024/02/20 12:10:45;;;;;;;9.82;2.33;;;10.20;66.70;;;;;;4067134;29;20486;-79
2024/02/20 12:12:47;;;;;;;12.75;2.13;;;10.30;66.80;;;;;;4066974;29;20056;-78
2024/02/20 12:14:58;;;;;;;9.80;2.53;;;10.30;65.80;;;;;;4066508;29;20379;-77
2024/02/20 12:17:02;;;;;;;12.90;2.53;;;10.40;65.40;;;;;;4066922;29;20056;-78
2024/02/20 12:19:06;;;;;;;12.65;2.33;;;10.50;65.20;;;;;;4066972;29;20103;-79
2024/02/20 12:21:10;;;;;;;9.65;2.33;;;10.50;64.30;;;;;;4064891;29;20059;-80
2024/02/20 12:23:11;;;;;;;10.57;2.25;;;10.60;63.40;;;;;;4067032;29;20111;-78
2024/02/20 12:25:17;;;;;;;10.00;1.98;;;10.70;63.90;;;;;;4066794;29;20502;-79
2024/02/20 12:27:19;;;;;;;8.25;2.28;;;10.80;62.60;;;;;;4066710;29;20062;-77
2024/02/20 12:29:20;;;;;;;8.25;2.45;;;10.90;62.50;;;;;;4066644;29;20052;-76
2024/02/20 12:31:23;;;;;;;10.43;2.30;;;10.80;61.70;;;;;;4066757;29;20048;-79
2024/02/20 12:33:25;;;;;;;11.88;2.35;;;10.80;62.30;;;;;;4066675;29;20088;-80
2024/02/20 12:35:29;;;;;;;8.55;2.50;;;10.60;62.60;;;;;;4069346;29;20514;-78
2024/02/20 12:37:31;;;;;;;10.63;2.30;;;10.70;63.70;;;;;;4070314;29;20473;-78
2024/02/20 12:39:32;;;;;;;9.77;2.25;;;10.90;63.90;;;;;;4069750;29;20052;-79
2024/02/20 12:41:34;;;;;;;12.95;2.20;;;11.00;63.00;;;;;;4069638;29;20047;-79
2024/02/20 12:43:36;;;;;;;10.45;2.20;;;11.00;61.40;;;;;;4069948;29;20510;-79
2024/02/20 12:45:39;;;;;;;10.48;2.42;;;10.90;61.60;;;;;;4069272;29;20071;-76
2024/02/20 12:47:41;;;;;;;9.05;2.20;;;11.10;61.20;;;;;;4054083;29;20049;-75
2024/02/20 12:49:43;;;;;;;12.23;2.83;;;11.20;61.00;;;;;;4054022;29;20120;-76
2024/02/20 12:51:46;;;;;;;10.70;2.20;;;11.50;60.30;;;;;;4068986;29;20052;-79
2024/02/20 12:53:48;;;;;;;9.20;2.00;;;11.60;59.30;;;;;;4069761;29;20451;-78
2024/02/20 12:55:50;;;;;;;8.88;1.90;;;11.80;57.80;;;;;;4069698;29;20059;-78
2024/02/20 12:57:52;;;;;;;11.13;2.22;;;11.80;57.70;;;;;;4069801;29;20052;-79
2024/02/20 12:59:54;;;;;;;9.82;2.25;;;11.90;57.00;;;;;;4069603;29;20147;-78
2024/02/20 13:01:55;;;;;;;8.32;2.35;;;11.70;56.60;;;;;;4069274;29;20506;-77
2024/02/20 13:03:57;;;;;;;8.32;2.00;;;12.20;57.80;;;;;;4069930;29;20099;-81
2024/02/20 13:05:59;;;;;;;8.18;1.85;;;12.10;55.80;;;;;;4069527;29;20104;-79
2024/02/20 13:08:04;;;;;;;7.43;2.05;;;12.10;55.80;;;;;;4069326;29;20048;-77
2024/02/20 13:10:07;;;;;;;10.02;2.40;;;12.30;56.00;;;;;;4069465;29;20052;-77
2024/02/20 13:12:11;;;;;;;10.20;2.58;;;12.30;56.60;;;;;;4069486;29;20048;-78
2024/02/20 13:14:13;;;;;;;10.20;1.95;;;12.70;55.80;;;;;;4069030;29;20137;-78
2024/02/20 13:16:15;;;;;;;8.88;2.25;;;12.80;54.70;;;;;;4069134;29;20222;-80
2024/02/20 13:18:17;;;;;;;9.13;2.30;;;13.00;55.40;;;;;;4069027;29;20478;-78
2024/02/20 13:20:19;;;;;;;7.85;2.58;;;13.00;54.40;;;;;;4067120;29;20048;-77
2024/02/20 13:22:21;;;;;;;10.25;1.90;;;13.20;54.40;;;;;;4068978;29;20119;-79
2024/02/20 13:24:24;;;;;;;8.32;1.90;;;13.40;52.20;;;;;;4069107;29;20083;-78
2024/02/20 13:26:25;;;;;;;7.95;2.10;;;13.30;52.80;;;;;;4069367;29;20054;-78
2024/02/20 13:28:27;;;;;;;7.55;2.00;;;13.00;53.70;;;;;;4070885;29;20063;-77
2024/02/20 13:30:29;;;;;;;8.90;2.03;;;13.10;53.80;;;;;;4069037;29;20120;-77
2024/02/20 13:32:31;;;;;;;9.85;2.50;;;12.80;54.20;;;;;;4069344;29;20099;-77
2024/02/20 13:34:33;;;;;;;11.10;2.50;;;12.90;54.60;;;;;;4069041;29;20058;-76
2024/02/20 13:36:34;;;;;;;9.32;2.50;;;13.40;53.10;;;;;;4069061;29;20099;-76
2024/02/20 13:38:40;;;;;;;8.85;2.00;;;14.40;51.70;;;;;;4068708;29;20442;-78
2024/02/20 13:40:43;;;;;;;8.75;2.25;;;13.30;51.30;;;;;;4069352;29;20048;-78
2024/02/20 13:42:44;;;;;;;10.93;2.08;;;12.90;52.90;;;;;;4069152;29;20429;-79
2024/02/20 13:44:46;;;;;;;9.70;2.40;;;12.40;54.10;;;;;;4069029;29;20115;-77
2024/02/20 13:46:50;;;;;;;7.70;2.00;;;12.40;54.80;;;;;;4067718;29;20052;-78
2024/02/20 13:48:52;;;;;;;5.93;2.20;;;12.10;55.60;;;;;;4068670;29;20509;-78
2024/02/20 13:50:54;;;;;;;7.80;2.38;;;15.20;53.10;;;;;;4068535;29;20044;-78
2024/02/20 13:52:57;;;;;;;9.35;2.50;;;13.30;52.50;;;;;;4068918;29;20115;-77
2024/02/20 13:54:59;;;;;;;6.68;1.77;;;13.10;53.30;;;;;;4068832;29;20052;-79
2024/02/20 13:57:02;;;;;;;6.60;1.90;;;12.40;54.00;;;;;;4068870;29;20487;-77
2024/02/20 13:59:04;;;;;;;8.18;2.40;;;12.00;55.90;;;;;;4068813;29;20482;-78
2024/02/20 14:01:05;;;;;;;8.70;2.13;;;11.60;57.10;;;;;;4072286;29;20108;-78
2024/02/20 14:03:07;;;;;;;9.18;2.03;;;11.60;57.60;;;;;;4100229;29;20047;-78
2024/02/20 14:05:09;;;;;;;10.20;2.35;;;11.50;58.10;;;;;;4099389;29;20106;-77
2024/02/20 14:07:11;;;;;;;11.70;2.40;;;11.20;59.00;;;;;;4084378;29;20063;-78
2024/02/20 14:09:13;;;;;;;9.20;2.20;;;11.10;59.30;;;;;;4084335;29;20489;-77
2024/02/20 14:11:17;;;;;;;10.45;2.15;;;10.90;59.90;;;;;;4084201;29;20293;-77
2024/02/20 14:13:21;;;;;;;9.80;2.10;;;10.80;61.20;;;;;;4084374;29;20169;-78
2024/02/20 14:15:23;;;;;;;8.77;2.50;;;10.90;61.10;;;;;;4084013;29;20054;-78
2024/02/20 14:17:25;;;;;;;11.70;2.50;;;10.90;61.70;;;;;;4094875;29;20059;-78
2024/02/20 14:19:27;;;;;;;9.57;2.33;;;10.80;61.10;;;;;;4099007;29;20054;-75
2024/02/20 14:21:29;;;;;;;8.88;2.40;;;10.70;61.90;;;;;;4097960;29;20047;-75
2024/02/20 14:23:31;;;;;;;12.70;2.55;;;10.70;61.50;;;;;;4098285;29;20056;-78
2024/02/20 14:25:33;;;;;;;11.10;2.78;;;10.70;62.10;;;;;;4085393;29;20110;-79
2024/02/20 14:27:35;;;;;;;9.10;2.35;;;10.80;61.60;;;;;;4084024;29;20060;-77
2024/02/20 14:29:38;;;;;;;9.43;2.47;;;11.10;60.90;;;;;;4083989;29;20387;-79
2024/02/20 14:31:40;;;;;;;10.52;2.50;;;11.60;59.70;;;;;;4085306;29;20114;-78
2024/02/20 14:33:42;;;;;;;8.45;4.78;;;12.10;58.00;;;;;;4085107;29;20052;-78
2024/02/20 14:35:44;;;;;;;9.93;3.17;;;14.50;54.80;;;;;;4084769;29;20095;-79
2024/02/20 14:37:46;;;;;;;9.57;4.07;;;15.00;51.30;;;;;;4093716;29;20059;-79
2024/02/20 14:39:48;;;;;;;9.35;3.65;;;14.90;49.40;;;;;;4083993;29;20532;-79
2024/02/20 14:41:50;;;;;;;7.03;4.35;;;16.00;47.20;;;;;;4083901;29;20067;-78
2024/02/20 14:43:52;;;;;;;8.88;3.50;;;17.70;45.60;;;;;;4083865;29;20047;-77
2024/02/20 14:45:57;;;;;;;9.35;2.30;;;18.20;44.30;;;;;;4091295;29;20060;-77
2024/02/20 14:48:01;;;;;;;9.45;2.33;;;17.40;43.10;;;;;;4099555;29;20520;-77
2024/02/20 14:50:03;;;;;;;9.18;2.38;;;16.10;45.10;;;;;;4099296;29;20071;-78
2024/02/20 14:52:06;;;;;;;9.10;3.03;;;14.90;48.30;;;;;;4099447;29;20056;-76
2024/02/20 14:54:08;;;;;;;12.15;2.42;;;15.70;49.50;;;;;;4099543;29;20110;-79
2024/02/20 14:56:14;;;;;;;8.52;2.33;;;16.20;47.20;;;;;;4099314;29;20390;-78
2024/02/20 14:58:16;;;;;;;8.35;2.38;;;16.50;45.70;;;;;;4099498;28;20091;-78
2024/02/20 15:00:19;;;;;;;7.40;2.20;;;15.90;45.90;;;;;;4100005;29;20055;-77
2024/02/20 15:02:22;;;;;;;7.90;2.40;;;15.50;47.20;;;;;;4099191;29;20055;-78
2024/02/20 15:04:24;;;;;;;8.05;2.25;;;14.70;48.10;;;;;;4099524;29;20448;-79
2024/02/20 15:06:26;;;;;;;5.68;2.15;;;14.40;49.20;;;;;;4099077;29;20051;-79
2024/02/20 15:08:28;;;;;;;10.20;2.05;;;13.70;50.50;;;;;;4099229;29;20070;-79
2024/02/20 15:10:30;;;;;;;6.53;1.90;;;12.80;50.90;;;;;;4083748;29;20056;-79
2024/02/20 15:12:32;;;;;;;9.40;2.10;;;12.10;51.60;;;;;;4083256;29;20060;-77
2024/02/20 15:14:34;;;;;;;7.22;1.73;;;11.80;52.00;;;;;;4082835;29;20055;-78
2024/02/20 15:16:36;;;;;;;9.07;2.28;;;11.50;53.20;;;;;;4089796;29;20143;-77
2024/02/20 15:18:40;;;;;;;8.48;2.00;;;11.50;54.00;;;;;;4083009;29;20052;-78
2024/02/20 15:20:42;;;;;;;6.22;2.10;;;11.60;54.20;;;;;;4081542;29;20461;-79
2024/02/20 15:22:44;;;;;;;7.43;2.10;;;11.50;54.70;;;;;;4083381;29;20048;-79
2024/02/20 15:24:45;;;;;;;8.45;1.83;;;11.60;54.60;;;;;;4082996;29;20051;-78
2024/02/20 15:26:47;;;;;;;6.60;1.92;;;11.50;55.10;;;;;;4082583;29;20489;-78
2024/02/20 15:28:49;;;;;;;8.35;2.08;;;11.50;55.30;;;;;;4083297;29;20103;-78
2024/02/20 15:30:51;;;;;;;7.05;2.00;;;11.40;54.40;;;;;;4082980;29;20059;-77
2024/02/20 15:32:53;;;;;;;7.00;1.98;;;11.50;55.10;;;;;;4091408;29;20054;-79
2024/02/20 15:34:56;;;;;;;7.30;2.10;;;11.50;55.40;;;;;;4097895;29;20044;-79
2024/02/20 15:36:59;;;;;;;9.38;2.72;;;11.40;55.90;;;;;;4082888;29;20055;-78
2024/02/20 15:39:01;;;;;;;13.95;2.78;;;11.50;56.10;;;;;;4082944;29;20405;-79
2024/02/20 15:41:03;;;;;;;7.03;2.05;;;11.50;55.40;;;;;;4083071;29;20048;-78
2024/02/20 15:43:08;;;;;;;7.07;2.10;;;11.50;55.80;;;;;;4082618;29;20059;-79
2024/02/20 15:45:10;;;;;;;6.00;2.00;;;11.40;55.90;;;;;;4083037;29;20426;-79
2024/02/20 15:47:12;;;;;;;7.68;2.30;;;11.10;56.20;;;;;;4082749;29;20315;-79
2024/02/20 15:49:14;;;;;;;7.07;2.03;;;11.00;56.90;;;;;;4082888;29;20060;-79
2024/02/20 15:51:18;;;;;;;9.43;2.60;;;11.00;57.10;;;;;;4082545;29;20051;-78
2024/02/20 15:53:22;;;;;;;8.27;2.30;;;11.00;56.90;;;;;;4082946;29;20122;-78
2024/02/20 15:55:23;;;;;;;9.85;2.20;;;11.00;57.00;;;;;;4082946;29;20170;-80
2024/02/20 15:57:25;;;;;;;9.38;2.28;;;10.80;57.50;;;;;;4082813;29;20155;-79
2024/02/20 15:59:27;;;;;;;8.75;2.28;;;10.60;57.90;;;;;;4081716;29;20135;-79
2024/02/20 16:01:29;;;;;;;9.20;2.28;;;10.60;58.40;;;;;;4081756;29;20063;-79
2024/02/20 16:03:31;;;;;;;6.93;2.28;;;10.60;58.50;;;;;;4082180;29;20481;-79
2024/02/20 16:05:35;;;;;;;6.57;2.13;;;10.60;58.30;;;;;;4082640;29;20058;-78
2024/02/20 16:07:39;;;;;;;6.75;2.08;;;10.60;58.50;;;;;;4082597;29;20068;-79
2024/02/20 16:09:40;;;;;;;10.85;2.33;;;10.60;58.30;;;;;;4082235;29;20055;-80
2024/02/20 16:11:44;;;;;;;8.23;2.00;;;10.60;58.60;;;;;;4082230;29;20099;-78
2024/02/20 16:13:46;;;;;;;10.65;2.50;;;10.50;58.80;;;;;;4082405;29;20054;-78
2024/02/20 16:15:48;;;;;;;8.27;2.20;;;10.40;58.90;;;;;;4082756;29;20453;-78
2024/02/20 16:17:51;;;;;;;7.38;2.15;;;10.30;59.50;;;;;;4082873;29;20063;-80
2024/02/20 16:19:53;;;;;;;10.25;2.40;;;10.20;59.80;;;;;;4084340;29;20052;-77
2024/02/20 16:21:54;;;;;;;7.88;2.50;;;10.20;60.20;;;;;;4084653;29;20079;-79
2024/02/20 16:23:57;;;;;;;10.93;4.38;;;10.20;60.30;;;;;;4082639;29;20169;-77
2024/02/20 16:25:59;;;;;;;7.22;2.58;;;10.20;60.70;;;;;;4082147;29;20066;-78
2024/02/20 16:28:01;;;;;;;9.35;3.10;;;10.10;60.80;;;;;;4082929;29;20048;-80
2024/02/20 16:30:04;;;;;;;10.32;2.67;;;10.20;61.30;;;;;;4082986;29;20490;-77
2024/02/20 16:32:07;;;;;;;12.27;3.00;;;10.30;61.40;;;;;;4083118;29;20079;-77
2024/02/20 16:34:09;;;;;;;13.98;3.20;;;10.20;61.30;;;;;;4082354;29;20099;-77
2024/02/20 16:36:10;;;;;;;10.35;2.72;;;10.20;61.60;;;;;;4081655;29;20103;-77
2024/02/20 16:38:12;;;;;;;9.07;2.20;;;10.20;61.70;;;;;;4082170;29;20134;-78